HBBA/BJM METAR and TAF weather

Enter ICAO airport designator
Station Type Date Time Source
HBBA METAR 2022/06/30 14:00 UTC NOAA

HBBA 301400Z 18012KT 9000 FEW030TCU29/15 Q1014 NOSIG


Station Type Date Time Source
HBBA Decoded METAR 2022/06/30 14:00 UTC NOAA

Bujumbura, Burundi (HBBA) 03-19S 029-19E 783M
Jun 30, 2022 - 10:00 AM EDT / 2022.06.30 1400 UTC
Wind: from the S (180 degrees) at 14 MPH (12 KT):0
Visibility: 5 mile(s):0
Sky conditions: mostly clear
Weather: Towering cumulus clouds observed
Pressure (altimeter): 29.94 in. Hg (1014 hPa)
ob: HBBA 301400Z 18012KT 9000 FEW030TCU29/15 Q1014 NOSIG
cycle: 14

Station Type Date Time Source
HBBA TAF 2022/06/30 12:56 UTC NOAA

TAF HBBA 301100Z 3012/0118 18010G20KT 8000 FEW030 SCT100
BECMG 3017/3019 00000KT CAVOK
BECMG 0103/0105 VRB03KT 6000 FEW025
BECMG 0108/0110 18012G22KT 8000 FEW030 SCT100
BECMG 0115/0117 18004KT CAVOK

Example: see airport list